Time;durP1;ratioP1;P1;durP2;ratioP2;P2;SDS_P1;SDS_P2;PMS_P1;PMS_P2;Temp;Humidity;BMP_temperature;BMP_pressure;BME280_temperature;BME280_humidity;BME280_pressure;Samples;Min_cycle;Max_cycle;Signal;HPM_P1;HPM_P2
2023/03/21 00:00:57;;;;;;;;;;;9.10;99.90;;;;;;5080906;28;19912;-76
2023/03/21 00:03:24;;;;;;;;;;;9.10;99.90;;;;;;5083767;28;19919;-76
2023/03/21 00:05:52;;;;;;;;;;;9.00;99.90;;;;;;5068353;28;19912;-76
2023/03/21 00:08:19;;;;;;;;;;;9.10;99.90;;;;;;5050395;28;20355;-76
2023/03/21 00:10:44;;;;;;;;;;;9.10;99.90;;;;;;5050168;28;19912;-76
2023/03/21 00:13:11;;;;;;;;;;;9.10;99.90;;;;;;5067913;28;19920;-76
2023/03/21 00:15:48;;;;;;;;;;;9.10;99.90;;;;;;5068391;28;19974;-76
2023/03/21 00:18:17;;;;;;;;;;;9.10;99.90;;;;;;5068212;28;20373;-76
2023/03/21 00:20:49;;;;;;;;;;;9.10;99.90;;;;;;5067693;28;19923;-76
2023/03/21 00:23:14;;;;;;;;;;;9.10;99.90;;;;;;5067936;28;20003;-76
2023/03/21 00:25:40;;;;;;;;;;;9.10;99.90;;;;;;5068173;28;20058;-76
2023/03/21 00:28:05;;;;;;;;;;;9.10;99.90;;;;;;5068317;28;20309;-76
2023/03/21 00:30:31;;;;;;;;;;;9.10;99.90;;;;;;5078153;28;19919;-76
2023/03/21 00:32:56;;;;;;;;;;;9.10;99.90;;;;;;5087031;28;19924;-76
2023/03/21 00:35:22;;;;;;;;;;;9.10;99.90;;;;;;5067779;28;19995;-76
2023/03/21 00:37:47;;;;;;;;;;;9.10;99.90;;;;;;5068174;28;20374;-75
2023/03/21 00:40:13;;;;;;;;;;;9.00;99.90;;;;;;5049667;28;20010;-76
2023/03/21 00:42:38;;;;;;;;;;;9.10;99.90;;;;;;5067647;28;19916;-76
2023/03/21 00:45:05;;;;;;;;;;;9.10;99.90;;;;;;5067460;28;20007;-76
2023/03/21 00:47:31;;;;;;;;;;;9.00;99.90;;;;;;5067690;28;20015;-76
2023/03/21 00:49:56;;;;;;;;;;;9.10;99.90;;;;;;5048584;28;20003;-75
2023/03/21 00:52:22;;;;;;;;;;;9.10;99.90;;;;;;5049285;28;20606;-76
2023/03/21 00:54:47;;;;;;;;;;;9.10;99.90;;;;;;5067762;28;19919;-76
2023/03/21 00:57:13;;;;;;;;;;;9.10;99.90;;;;;;5061781;28;19920;-76
2023/03/21 00:59:38;;;;;;;;;;;9.10;99.90;;;;;;5070064;28;19912;-76
2023/03/21 01:02:06;;;;;;;;;;;9.10;99.90;;;;;;5081949;28;19918;-76
2023/03/21 01:04:33;;;;;;;;;;;9.10;99.90;;;;;;5069128;28;20414;-76
2023/03/21 01:06:58;;;;;;;;;;;9.10;99.90;;;;;;5067250;28;19913;-76
2023/03/21 01:09:24;;;;;;;;;;;9.10;99.90;;;;;;5067552;28;19912;-76
2023/03/21 01:11:50;;;;;;;;;;;9.00;99.90;;;;;;5066917;28;20294;-76
2023/03/21 01:14:16;;;;;;;;;;;9.10;99.90;;;;;;5069939;28;19912;-76
2023/03/21 01:16:42;;;;;;;;;;;9.10;99.90;;;;;;5067677;28;19913;-76
2023/03/21 01:19:10;;;;;;;;;;;9.10;99.90;;;;;;5067431;28;19924;-76
2023/03/21 01:21:35;;;;;;;;;;;9.00;99.90;;;;;;5067216;28;19927;-76
2023/03/21 01:24:01;;;;;;;;;;;9.00;99.90;;;;;;5049616;28;20362;-76
2023/03/21 01:26:27;;;;;;;;;;;9.00;99.90;;;;;;5067486;28;19913;-76
2023/03/21 01:28:52;;;;;;;;;;;9.10;99.90;;;;;;5067259;28;19955;-76
2023/03/21 01:31:18;;;;;;;;;;;9.10;99.90;;;;;;5083672;28;19912;-76
2023/03/21 01:33:44;;;;;;;;;;;9.00;99.90;;;;;;5079590;28;19912;-76
2023/03/21 01:36:14;;;;;;;;;;;9.10;99.90;;;;;;5067383;28;20353;-76
2023/03/21 01:38:40;;;;;;;;;;;9.10;99.90;;;;;;5067246;28;19924;-76
2023/03/21 01:41:06;;;;;;;;;;;9.10;99.90;;;;;;5066955;28;19916;-76
2023/03/21 01:43:33;;;;;;;;;;;9.00;99.90;;;;;;5067429;28;19913;-76
2023/03/21 01:46:07;;;;;;;;;;;9.00;99.90;;;;;;5049191;28;19920;-75
2023/03/21 01:48:34;;;;;;;;;;;9.00;99.90;;;;;;5066934;28;19913;-75
2023/03/21 01:51:00;;;;;;;;;;;9.00;99.90;;;;;;5049009;28;19989;-76
2023/03/21 01:53:28;;;;;;;;;;;9.00;99.90;;;;;;5067087;28;19920;-76
2023/03/21 01:55:56;;;;;;;;;;;9.00;99.90;;;;;;5067287;28;19986;-76
2023/03/21 01:58:22;;;;;;;;;;;9.00;99.90;;;;;;5061066;28;20015;-76
2023/03/21 02:00:49;;;;;;;;;;;9.00;99.90;;;;;;5079226;28;19912;-76
2023/03/21 02:03:15;;;;;;;;;;;9.00;99.90;;;;;;5086167;28;19919;-76
2023/03/21 02:06:01;;;;;;;;;;;9.00;99.90;;;;;;5070068;28;19958;-75
2023/03/21 02:08:30;;;;;;;;;;;9.00;99.90;;;;;;5069605;28;19962;-75
2023/03/21 02:10:55;;;;;;;;;;;9.00;99.90;;;;;;5068992;28;19912;-76
2023/03/21 02:13:21;;;;;;;;;;;9.00;99.90;;;;;;5069997;28;19908;-75
2023/03/21 02:15:55;;;;;;;;;;;9.00;99.90;;;;;;5069697;28;19948;-75
2023/03/21 02:18:30;;;;;;;;;;;9.00;99.90;;;;;;5069581;28;19913;-76
2023/03/21 02:20:58;;;;;;;;;;;9.00;99.90;;;;;;5069486;28;19928;-76
2023/03/21 02:23:35;;;;;;;;;;;9.00;99.90;;;;;;5070371;28;19966;-76
2023/03/21 02:26:13;;;;;;;;;;;9.00;99.90;;;;;;5070446;28;19916;-76
2023/03/21 02:28:38;;;;;;;;;;;9.00;99.90;;;;;;5070378;28;19916;-76
2023/03/21 02:31:07;;;;;;;;;;;9.00;99.90;;;;;;5084572;28;19965;-76
2023/03/21 02:33:38;;;;;;;;;;;9.00;99.90;;;;;;5080424;28;19912;-76
2023/03/21 02:36:04;;;;;;;;;;;9.00;99.90;;;;;;5072074;28;19912;-76
2023/03/21 02:38:35;;;;;;;;;;;9.00;99.90;;;;;;5071735;28;19928;-76
2023/03/21 02:41:26;;;;;;;;;;;9.00;99.90;;;;;;5075311;28;19912;-76
2023/03/21 02:43:58;;;;;;;;;;;9.00;99.90;;;;;;5053367;28;19958;-76
2023/03/21 02:46:26;;;;;;;;;;;9.00;99.90;;;;;;5069718;28;19912;-76
2023/03/21 02:49:13;;;;;;;;;;;9.00;99.90;;;;;;5051493;28;19912;-76
2023/03/21 02:51:40;;;;;;;;;;;9.00;99.90;;;;;;5069512;28;20416;-76
2023/03/21 02:54:11;;;;;;;;;;;9.00;99.90;;;;;;5069597;28;19908;-76
2023/03/21 02:56:39;;;;;;;;;;;9.00;99.90;;;;;;5069097;28;19912;-76
2023/03/21 02:59:05;;;;;;;;;;;8.90;99.90;;;;;;5068316;28;20621;-76
2023/03/21 03:01:31;;;;;;;;;;;9.00;99.90;;;;;;5087030;28;19920;-76
2023/03/21 03:03:56;;;;;;;;;;;9.00;99.90;;;;;;5080293;28;19916;-76
2023/03/21 03:06:25;;;;;;;;;;;9.00;99.90;;;;;;5068513;28;19913;-76
2023/03/21 03:08:54;;;;;;;;;;;9.00;99.90;;;;;;5069653;28;19913;-76
2023/03/21 03:11:23;;;;;;;;;;;9.00;99.90;;;;;;5051078;28;20357;-76
2023/03/21 03:13:56;;;;;;;;;;;9.00;99.90;;;;;;5068426;28;19912;-76
2023/03/21 03:16:24;;;;;;;;;;;9.00;99.90;;;;;;5069331;28;19920;-76
2023/03/21 03:18:58;;;;;;;;;;;9.00;99.90;;;;;;5069313;28;19922;-76
2023/03/21 03:21:42;;;;;;;;;;;9.00;99.90;;;;;;5068647;28;19927;-76
2023/03/21 03:24:21;;;;;;;;;;;8.90;99.90;;;;;;5069494;28;20002;-76
2023/03/21 03:26:47;;;;;;;;;;;9.00;99.90;;;;;;5069044;28;19913;-76
2023/03/21 03:29:15;;;;;;;;;;;9.00;99.90;;;;;;5069070;28;20019;-76
2023/03/21 03:31:44;;;;;;;;;;;8.90;99.90;;;;;;5088707;28;19916;-76
2023/03/21 03:34:15;;;;;;;;;;;9.00;99.90;;;;;;5077512;28;19922;-76
2023/03/21 03:36:43;;;;;;;;;;;9.00;99.90;;;;;;5068846;28;19912;-75
2023/03/21 03:39:10;;;;;;;;;;;9.00;99.90;;;;;;5069028;28;19917;-76
2023/03/21 03:41:48;;;;;;;;;;;9.00;99.90;;;;;;5068657;28;19991;-75
2023/03/21 03:44:14;;;;;;;;;;;8.90;99.90;;;;;;5068491;28;19919;-76
2023/03/21 03:47:00;;;;;;;;;;;8.90;99.90;;;;;;5069095;28;19912;-75
2023/03/21 03:49:28;;;;;;;;;;;8.90;99.90;;;;;;5068150;28;19916;-76
2023/03/21 03:51:56;;;;;;;;;;;8.90;99.90;;;;;;5068156;28;19912;-76
2023/03/21 03:54:25;;;;;;;;;;;8.90;99.90;;;;;;5050634;28;19916;-76
2023/03/21 03:56:51;;;;;;;;;;;8.90;99.90;;;;;;5052470;28;19924;-76
2023/03/21 03:59:23;;;;;;;;;;;8.90;99.90;;;;;;5072615;28;19916;-76
2023/03/21 04:01:49;;;;;;;;;;;8.90;99.90;;;;;;5043646;28;19923;-76
2023/03/21 04:04:15;;;;;;;;;;;8.90;99.90;;;;;;5076066;28;19912;-76
2023/03/21 04:06:50;;;;;;;;;;;8.90;99.90;;;;;;5061977;28;19920;-75
2023/03/21 04:09:18;;;;;;;;;;;8.90;99.90;;;;;;5068184;28;19953;-76
2023/03/21 04:11:43;;;;;;;;;;;8.90;99.90;;;;;;5066495;28;19912;-76
2023/03/21 04:14:09;;;;;;;;;;;8.90;99.90;;;;;;5068256;28;19982;-76
2023/03/21 04:16:34;;;;;;;;;;;8.90;99.90;;;;;;5067977;28;19940;-76
2023/03/21 04:19:00;;;;;;;;;;;8.90;99.90;;;;;;5068222;28;19916;-76
2023/03/21 04:21:27;;;;;;;;;;;8.80;99.90;;;;;;5067537;28;19920;-76
2023/03/21 04:23:53;;;;;;;;;;;8.80;99.90;;;;;;5068005;28;20536;-75
2023/03/21 04:26:20;;;;;;;;;;;8.80;99.90;;;;;;5068092;28;20014;-76
2023/03/21 04:28:45;;;;;;;;;;;8.80;99.90;;;;;;5057817;28;20003;-75
2023/03/21 04:31:12;;;;;;;;;;;8.80;99.90;;;;;;5087824;28;20007;-76
2023/03/21 04:33:38;;;;;;;;;;;8.80;99.90;;;;;;5080788;28;20417;-76
2023/03/21 04:36:05;;;;;;;;;;;8.80;99.90;;;;;;5050175;28;19947;-76
2023/03/21 04:38:31;;;;;;;;;;;8.80;99.90;;;;;;5049597;28;19927;-76
2023/03/21 04:40:56;;;;;;;;;;;8.80;99.90;;;;;;5067450;28;20629;-76
2023/03/21 04:43:27;;;;;;;;;;;8.80;99.90;;;;;;5067941;28;19912;-75
2023/03/21 04:45:53;;;;;;;;;;;8.80;99.90;;;;;;5067960;28;20006;-76
2023/03/21 04:48:18;;;;;;;;;;;8.80;99.90;;;;;;5067911;28;20006;-76
2023/03/21 04:50:44;;;;;;;;;;;8.80;99.90;;;;;;5067451;28;20011;-75
2023/03/21 04:53:10;;;;;;;;;;;8.80;99.90;;;;;;5049797;28;20374;-76
2023/03/21 04:55:35;;;;;;;;;;;8.80;99.90;;;;;;5067603;28;19915;-76
2023/03/21 04:58:04;;;;;;;;;;;8.80;99.90;;;;;;5069596;28;19912;-76
2023/03/21 05:00:30;;;;;;;;;;;8.80;99.90;;;;;;5077290;28;19915;-76
2023/03/21 05:02:57;;;;;;;;;;;8.80;99.90;;;;;;5086605;28;20319;-76
2023/03/21 05:05:23;;;;;;;;;;;8.70;99.90;;;;;;5067236;28;19973;-76
2023/03/21 05:07:48;;;;;;;;;;;8.80;99.90;;;;;;5067662;28;19913;-75
2023/03/21 05:10:15;;;;;;;;;;;8.70;99.90;;;;;;5067436;28;19919;-75
2023/03/21 05:12:41;;;;;;;;;;;8.70;99.90;;;;;;5067241;28;19920;-76
2023/03/21 05:15:06;;;;;;;;;;;8.70;99.90;;;;;;5067666;28;20007;-75
2023/03/21 05:17:32;;;;;;;;;;;8.70;99.90;;;;;;5067433;28;20024;-75
2023/03/21 05:19:57;;;;;;;;;;;8.70;99.90;;;;;;5067372;28;19962;-75
2023/03/21 05:22:25;;;;;;;;;;;8.70;99.90;;;;;;5067577;28;20428;-75
2023/03/21 05:24:54;;;;;;;;;;;8.70;99.90;;;;;;5067591;28;19916;-75
2023/03/21 05:27:34;;;;;;;;;;;8.70;99.90;;;;;;5067038;28;19912;-76
2023/03/21 05:30:02;;;;;;;;;;;8.70;99.90;;;;;;5073103;28;19927;-76
2023/03/21 05:32:27;;;;;;;;;;;8.70;99.90;;;;;;5087326;28;19912;-76
2023/03/21 05:34:55;;;;;;;;;;;8.70;99.90;;;;;;5051218;28;20280;-76
2023/03/21 05:37:20;;;;;;;;;;;8.70;99.90;;;;;;5070291;28;19956;-76
2023/03/21 05:39:46;;;;;;;;;;;8.70;99.90;;;;;;5071098;28;19923;-76
2023/03/21 05:42:12;;;;;;;;;;;8.70;99.90;;;;;;5052695;28;19919;-76
2023/03/21 05:44:39;;;;;;;;;;;8.70;99.90;;;;;;5071020;28;19912;-76
2023/03/21 05:47:05;;;;;;;;;;;8.70;99.90;;;;;;5071046;28;19912;-75
2023/03/21 05:49:31;;;;;;;;;;;8.70;99.90;;;;;;5070892;28;19936;-76
2023/03/21 05:51:56;;;;;;;;;;;8.70;99.90;;;;;;5070515;28;19912;-75
2023/03/21 05:54:22;;;;;;;;;;;8.70;99.90;;;;;;5071005;28;20324;-76
2023/03/21 05:56:47;;;;;;;;;;;8.70;99.90;;;;;;5067429;28;19912;-76
2023/03/21 05:59:13;;;;;;;;;;;8.70;99.90;;;;;;5068134;28;19977;-76
2023/03/21 06:01:39;;;;;;;;;;;8.70;99.90;;;;;;5090115;28;19970;-75
2023/03/21 06:04:04;;;;;;;;;;;8.70;99.90;;;;;;5080349;28;19952;-76
2023/03/21 06:06:30;;;;;;;;;;;8.70;99.90;;;;;;5070672;28;19916;-75
2023/03/21 06:08:55;;;;;;;;;;;8.70;99.90;;;;;;5070971;28;19909;-76
2023/03/21 06:11:28;;;;;;;;;;;8.80;99.90;;;;;;5070309;28;19908;-75
2023/03/21 06:13:54;;;;;;;;;;;8.80;99.90;;;;;;5070453;28;19920;-75
2023/03/21 06:16:19;;;;;;;;;;;8.80;99.90;;;;;;5052612;28;19912;-76
2023/03/21 06:18:45;;;;;;;;;;;8.70;99.90;;;;;;5070463;28;19959;-76
2023/03/21 06:21:10;;;;;;;;;;;8.80;99.90;;;;;;5070322;28;19921;-76
2023/03/21 06:23:36;;;;;;;;;;;8.70;99.90;;;;;;5070570;28;19909;-76
2023/03/21 06:26:02;;;;;;;;;;;8.80;99.90;;;;;;5070558;28;19912;-76
2023/03/21 06:28:27;;;;;;;;;;;8.80;99.90;;;;;;5069823;28;19913;-75
2023/03/21 06:30:53;;;;;;;;;;;8.80;99.90;;;;;;5083186;28;19923;-75
2023/03/21 06:33:19;;;;;;;;;;;8.80;99.90;;;;;;5086089;28;19916;-76
2023/03/21 06:35:49;;;;;;;;;;;8.80;99.90;;;;;;5070178;28;19986;-76
2023/03/21 06:38:15;;;;;;;;;;;8.80;99.90;;;;;;5069966;28;19971;-75
2023/03/21 06:40:40;;;;;;;;;;;8.80;99.90;;;;;;5051399;28;20359;-76
2023/03/21 06:43:06;;;;;;;;;;;8.80;99.90;;;;;;5069378;28;20344;-76
2023/03/21 06:45:31;;;;;;;;;;;8.80;99.90;;;;;;5069310;28;20460;-76
2023/03/21 06:47:57;;;;;;;;;;;8.80;99.90;;;;;;5068651;28;19912;-76
2023/03/21 06:50:22;;;;;;;;;;;8.80;99.90;;;;;;5069663;28;20310;-76
2023/03/21 06:52:48;;;;;;;;;;;8.80;99.90;;;;;;5069478;28;19935;-76
2023/03/21 06:55:13;;;;;;;;;;;8.80;99.90;;;;;;5054350;28;19912;-76
2023/03/21 06:57:39;;;;;;;;;;;8.80;99.90;;;;;;5069234;28;20467;-76
2023/03/21 07:00:04;;;;;;;;;;;8.80;99.90;;;;;;5075333;28;19912;-76
2023/03/21 07:02:30;;;;;;;;;;;8.90;99.90;;;;;;5082106;28;19917;-76
2023/03/21 07:04:56;;;;;;;;;;;8.90;99.90;;;;;;5071596;28;19920;-75
2023/03/21 07:07:25;;;;;;;;;;;8.90;99.90;;;;;;5069564;28;19954;-75
2023/03/21 07:09:50;;;;;;;;;;;8.90;99.90;;;;;;5069449;28;20029;-75
2023/03/21 07:12:16;;;;;;;;;;;8.90;99.90;;;;;;5069246;28;20539;-75
2023/03/21 07:14:41;;;;;;;;;;;8.90;99.90;;;;;;5066279;28;19916;-76
2023/03/21 07:17:07;;;;;;;;;;;8.90;99.90;;;;;;5069371;28;19915;-75
2023/03/21 07:19:32;;;;;;;;;;;8.90;99.90;;;;;;5068878;28;19973;-75
2023/03/21 07:22:00;;;;;;;;;;;8.90;99.90;;;;;;5068938;28;20003;-75
2023/03/21 07:24:26;;;;;;;;;;;8.90;99.90;;;;;;5069279;28;19908;-76
2023/03/21 07:26:52;;;;;;;;;;;8.90;99.90;;;;;;5069203;28;19915;-76
2023/03/21 07:29:20;;;;;;;;;;;8.90;99.90;;;;;;5069006;28;20003;-75
2023/03/21 07:31:45;;;;;;;;;;;8.90;99.90;;;;;;5089022;28;20327;-75
2023/03/21 07:34:11;;;;;;;;;;;9.00;99.90;;;;;;5077640;28;19912;-75
2023/03/21 07:36:37;;;;;;;;;;;9.00;99.90;;;;;;5069149;28;19916;-76
2023/03/21 07:39:03;;;;;;;;;;;9.00;99.90;;;;;;5069044;28;19916;-75
2023/03/21 07:41:28;;;;;;;;;;;8.90;99.90;;;;;;5068430;28;20393;-75
2023/03/21 07:43:54;;;;;;;;;;;9.00;99.90;;;;;;5068965;28;20007;-76
2023/03/21 07:46:19;;;;;;;;;;;9.00;99.90;;;;;;5068810;28;19963;-75
2023/03/21 07:48:45;;;;;;;;;;;9.00;99.90;;;;;;5068722;28;19915;-76
2023/03/21 07:51:10;;;;;;;;;;;9.00;99.90;;;;;;5068343;28;19915;-76
2023/03/21 07:53:36;;;;;;;;;;;9.00;99.90;;;;;;5068823;28;19912;-76
2023/03/21 07:56:02;;;;;;;;;;;9.00;99.90;;;;;;5068815;28;19909;-76
2023/03/21 07:58:28;;;;;;;;;;;9.10;99.90;;;;;;5070107;28;20555;-76
2023/03/21 08:00:55;;;;;;;;;;;9.10;99.90;;;;;;5053703;28;19999;-76
2023/03/21 08:03:22;;;;;;;;;;;9.10;99.90;;;;;;5069305;28;19912;-75
2023/03/21 08:05:48;;;;;;;;;;;9.10;99.90;;;;;;5068170;28;19916;-76
2023/03/21 08:08:14;;;;;;;;;;;9.20;99.90;;;;;;5068073;28;20388;-76
2023/03/21 08:10:41;;;;;;;;;;;9.20;99.90;;;;;;5067952;28;19912;-76
2023/03/21 08:13:06;;;;;;;;;;;9.20;99.90;;;;;;5067842;28;19908;-76
2023/03/21 08:15:32;;;;;;;;;;;9.20;99.90;;;;;;5066800;28;19913;-76
2023/03/21 08:17:58;;;;;;;;;;;9.30;99.90;;;;;;5049602;28;19923;-76
2023/03/21 08:20:24;;;;;;;;;;;9.30;99.90;;;;;;5049819;28;19920;-78
2023/03/21 08:22:49;;;;;;;;;;;9.30;99.90;;;;;;5049858;28;20003;-76
2023/03/21 08:25:16;;;;;;;;;;;9.30;99.90;;;;;;5068045;28;19912;-77
2023/03/21 08:27:43;;;;;;;;;;;9.30;99.90;;;;;;5050053;28;19912;-76
2023/03/21 08:30:09;;;;;;;;;;;9.30;99.90;;;;;;5071562;28;20003;-77
2023/03/21 08:32:37;;;;;;;;;;;9.40;99.90;;;;;;5067459;28;20415;-77
2023/03/21 08:35:03;;;;;;;;;;;9.40;99.90;;;;;;5086118;28;19919;-76
2023/03/21 08:37:30;;;;;;;;;;;9.40;99.90;;;;;;5069314;28;19908;-77
2023/03/21 08:39:55;;;;;;;;;;;9.40;99.90;;;;;;5082251;28;19912;-76
2023/03/21 08:42:21;;;;;;;;;;;9.40;99.90;;;;;;5067340;28;20250;-77
2023/03/21 08:44:47;;;;;;;;;;;9.50;99.90;;;;;;5056752;28;19923;-77
2023/03/21 08:47:13;;;;;;;;;;;9.50;99.90;;;;;;5067389;28;19912;-76
2023/03/21 08:49:38;;;;;;;;;;;9.50;99.90;;;;;;5067195;28;19913;-77
2023/03/21 08:52:05;;;;;;;;;;;9.60;99.90;;;;;;5067382;28;20011;-76
2023/03/21 08:54:30;;;;;;;;;;;9.60;99.90;;;;;;5067115;28;20392;-77
2023/03/21 08:56:56;;;;;;;;;;;9.60;99.90;;;;;;5067421;28;19912;-76
2023/03/21 08:59:21;;;;;;;;;;;9.60;99.90;;;;;;5067230;28;19916;-76
2023/03/21 09:01:47;;;;;;;;;;;9.60;99.90;;;;;;5066031;28;19919;-76
2023/03/21 09:04:12;;;;;;;;;;;9.70;99.90;;;;;;5068609;28;19912;-76
2023/03/21 09:06:39;;;;;;;;;;;9.60;99.90;;;;;;5066809;28;19918;-75
2023/03/21 09:09:06;;;;;;;;;;;9.70;99.90;;;;;;5066902;28;19916;-75
2023/03/21 09:11:33;;;;;;;;;;;9.70;99.90;;;;;;5068131;28;19912;-75
2023/03/21 09:13:58;;;;;;;;;;;9.70;99.90;;;;;;5070916;28;19913;-76
2023/03/21 09:16:24;;;;;;;;;;;9.70;99.90;;;;;;5070822;28;19919;-76
2023/03/21 09:18:54;;;;;;;;;;;9.70;99.90;;;;;;5070510;28;19983;-76
2023/03/21 09:21:21;;;;;;;;;;;9.70;99.90;;;;;;5070220;28;19985;-76
2023/03/21 09:23:51;;;;;;;;;;;9.80;99.90;;;;;;5052813;28;19912;-76
2023/03/21 09:26:18;;;;;;;;;;;9.80;99.90;;;;;;5070856;28;19919;-76
2023/03/21 09:28:45;;;;;;;;;;;9.80;99.90;;;;;;5070653;28;20007;-76
2023/03/21 09:31:11;;;;;;;;;;;9.80;99.90;;;;;;5070201;28;19955;-76
2023/03/21 09:33:39;;;;;;;;;;;9.90;99.90;;;;;;5076946;28;20373;-76
2023/03/21 09:36:05;;;;;;;;;;;9.90;99.90;;;;;;5090844;28;19912;-76
2023/03/21 09:38:35;;;;;;;;;;;9.90;99.90;;;;;;5090582;28;20424;-76
2023/03/21 09:41:09;;;;;;;;;;;9.90;99.90;;;;;;5075723;28;19919;-76
2023/03/21 09:43:38;;;;;;;;;;;9.90;99.90;;;;;;5070170;28;20319;-76
2023/03/21 09:46:12;;;;;;;;;;;9.90;99.90;;;;;;5070274;28;19938;-76
2023/03/21 09:49:01;;;;;;;;;;;10.00;99.90;;;;;;5070017;28;20290;-76
2023/03/21 09:51:33;;;;;;;;;;;10.00;99.90;;;;;;5063993;28;20019;-76
2023/03/21 09:54:02;;;;;;;;;;;10.00;99.90;;;;;;5069592;28;20011;-76
2023/03/21 09:56:30;;;;;;;;;;;10.00;99.90;;;;;;5067732;28;19913;-76
2023/03/21 09:58:58;;;;;;;;;;;10.10;99.90;;;;;;5063056;28;19942;-76
2023/03/21 10:01:27;;;;;;;;;;;10.00;99.90;;;;;;5073449;28;19920;-77
2023/03/21 10:03:53;;;;;;;;;;;10.10;99.90;;;;;;5081231;28;20325;-76
2023/03/21 10:06:27;;;;;;;;;;;10.10;99.90;;;;;;5069919;28;19912;-77
2023/03/21 10:08:54;;;;;;;;;;;10.10;99.90;;;;;;5070070;28;20305;-76
2023/03/21 10:11:26;;;;;;;;;;;10.10;99.90;;;;;;5069442;28;19916;-76
2023/03/21 10:13:51;;;;;;;;;;;10.10;99.90;;;;;;5069732;28;20289;-76
2023/03/21 10:16:27;;;;;;;;;;;10.10;99.90;;;;;;5069573;28;19912;-76
2023/03/21 10:18:54;;;;;;;;;;;10.20;99.90;;;;;;5069413;28;19966;-76
2023/03/21 10:21:26;;;;;;;;;;;10.20;99.90;;;;;;5050827;28;19970;-77
2023/03/21 10:23:53;;;;;;;;;;;10.20;99.90;;;;;;5069349;28;19917;-76
2023/03/21 10:26:20;;;;;;;;;;;10.30;99.90;;;;;;5051609;28;19913;-76
2023/03/21 10:28:47;;;;;;;;;;;10.30;99.90;;;;;;5069528;28;19970;-77
2023/03/21 10:31:15;;;;;;;;;;;10.30;99.90;;;;;;5068811;28;20762;-77
2023/03/21 10:33:45;;;;;;;;;;;10.30;99.90;;;;;;5057906;28;19920;-76
2023/03/21 10:36:12;;;;;;;;;;;10.30;99.90;;;;;;5089163;28;19916;-77
2023/03/21 10:38:40;;;;;;;;;;;10.30;99.90;;;;;;5089101;28;19916;-77
2023/03/21 10:41:05;;;;;;;;;;;10.40;99.90;;;;;;5067836;28;19912;-77
2023/03/21 10:43:33;;;;;;;;;;;10.40;99.90;;;;;;5068078;28;19914;-77
2023/03/21 10:46:05;;;;;;;;;;;10.40;99.90;;;;;;5068519;28;19920;-77
2023/03/21 10:48:34;;;;;;;;;;;10.40;99.90;;;;;;5069379;28;20035;-77
2023/03/21 10:51:00;;;;;;;;;;;10.40;99.90;;;;;;5069592;28;19913;-77
2023/03/21 10:53:31;;;;;;;;;;;10.40;99.90;;;;;;5051955;28;19918;-77
2023/03/21 10:55:58;;;;;;;;;;;10.50;99.90;;;;;;5070025;28;19919;-77
2023/03/21 10:58:28;;;;;;;;;;;10.50;99.90;;;;;;5064158;28;19927;-77
2023/03/21 11:00:56;;;;;;;;;;;10.50;99.90;;;;;;5069598;28;20058;-77
2023/03/21 11:03:35;;;;;;;;;;;10.50;99.90;;;;;;5074535;28;19973;-77
2023/03/21 11:06:13;;;;;;;;;;;10.50;99.90;;;;;;5090202;28;19920;-77
2023/03/21 11:08:46;;;;;;;;;;;10.60;99.90;;;;;;5089852;28;19912;-76
2023/03/21 11:11:19;;;;;;;;;;;10.60;99.90;;;;;;5089565;28;19961;-77
2023/03/21 11:13:45;;;;;;;;;;;10.60;99.90;;;;;;5089610;28;19919;-77
2023/03/21 11:16:10;;;;;;;;;;;10.60;99.90;;;;;;5071589;28;20269;-77
2023/03/21 11:18:41;;;;;;;;;;;10.60;99.90;;;;;;5070985;28;20273;-76
2023/03/21 11:21:08;;;;;;;;;;;10.60;99.90;;;;;;5074415;28;20369;-76
2023/03/21 11:23:36;;;;;;;;;;;10.70;99.90;;;;;;5068465;28;19917;-77
2023/03/21 11:26:02;;;;;;;;;;;10.60;99.90;;;;;;5069326;28;19916;-77
2023/03/21 11:28:32;;;;;;;;;;;10.70;99.90;;;;;;5069177;28;19912;-77
2023/03/21 11:30:59;;;;;;;;;;;10.80;99.90;;;;;;5068843;28;19920;-77
2023/03/21 11:33:32;;;;;;;;;;;10.80;99.80;;;;;;5073553;28;20020;-77
2023/03/21 11:36:05;;;;;;;;;;;10.80;99.80;;;;;;5089236;28;19916;-77
2023/03/21 11:38:37;;;;;;;;;;;10.90;99.70;;;;;;5089062;28;19947;-77
2023/03/21 11:41:04;;;;;;;;;;;10.90;99.70;;;;;;5073784;28;20644;-77
2023/03/21 11:43:31;;;;;;;;;;;10.90;99.60;;;;;;5068745;28;19919;-77
2023/03/21 11:46:02;;;;;;;;;;;11.00;99.60;;;;;;5068789;28;19993;-77
2023/03/21 11:48:28;;;;;;;;;;;11.00;99.60;;;;;;5068586;28;19913;-78
2023/03/21 11:51:02;;;;;;;;;;;11.00;99.60;;;;;;5068450;28;19918;-77
2023/03/21 11:53:43;;;;;;;;;;;11.10;99.60;;;;;;5068347;28;19913;-77
2023/03/21 11:56:19;;;;;;;;;;;11.10;99.60;;;;;;5048709;28;19912;-77
2023/03/21 11:59:00;;;;;;;;;;;11.10;99.60;;;;;;5054288;28;19962;-77
2023/03/21 12:01:26;;;;;;;;;;;11.10;99.60;;;;;;5068102;28;19926;-77
2023/03/21 12:04:10;;;;;;;;;;;11.10;99.70;;;;;;5077351;28;20457;-77
2023/03/21 12:06:38;;;;;;;;;;;11.20;99.70;;;;;;5088942;28;19917;-77
2023/03/21 12:09:26;;;;;;;;;;;11.20;99.60;;;;;;5088770;28;19912;-77
2023/03/21 12:11:59;;;;;;;;;;;11.30;99.40;;;;;;5088471;28;20300;-78
2023/03/21 12:14:25;;;;;;;;;;;11.40;99.40;;;;;;5088792;28;20030;-78
2023/03/21 12:16:56;;;;;;;;;;;11.50;99.30;;;;;;5088582;28;20008;-77
2023/03/21 12:19:34;;;;;;;;;;;11.50;99.30;;;;;;5088141;28;19970;-77
2023/03/21 12:22:05;;;;;;;;;;;11.50;99.30;;;;;;5062976;28;19920;-78
2023/03/21 12:24:32;;;;;;;;;;;11.50;99.20;;;;;;5060262;28;19922;-78
2023/03/21 12:27:12;;;;;;;;;;;11.60;99.30;;;;;;5068117;28;20608;-78
2023/03/21 12:29:38;;;;;;;;;;;11.60;99.20;;;;;;5068213;28;19920;-78
2023/03/21 12:32:36;;;;;;;;;;;11.60;99.20;;;;;;5049916;28;20259;-78
2023/03/21 12:35:01;;;;;;;;;;;11.60;99.30;;;;;;5033362;28;19909;-78
2023/03/21 12:37:27;;;;;;;;;;;11.60;99.30;;;;;;5067963;28;19983;-78
2023/03/21 12:39:56;;;;;;;;;;;11.60;99.30;;;;;;5067875;28;19916;-78
2023/03/21 12:42:39;;;;;;;;;;;11.60;99.30;;;;;;5075053;28;20539;-78
2023/03/21 12:45:24;;;;;;;;;;;11.60;99.30;;;;;;5072271;28;19916;-78
2023/03/21 12:47:52;;;;;;;;;;;11.70;99.30;;;;;;5065389;28;19912;-78
2023/03/21 12:50:21;;;;;;;;;;;11.70;99.30;;;;;;5067030;28;19916;-78
2023/03/21 12:52:48;;;;;;;;;;;11.70;99.40;;;;;;5066763;28;19920;-78
2023/03/21 12:55:20;;;;;;;;;;;11.70;99.40;;;;;;5067416;28;19919;-78
2023/03/21 12:57:45;;;;;;;;;;;11.70;99.40;;;;;;5061837;28;19951;-78
2023/03/21 13:00:46;;;;;;;;;;;11.70;99.40;;;;;;5067221;28;19959;-78
2023/03/21 13:03:31;;;;;;;;;;;11.70;99.40;;;;;;5001435;28;19961;-77
2023/03/21 13:05:58;;;;;;;;;;;11.60;99.50;;;;;;5024675;28;19916;-77
2023/03/21 13:08:27;;;;;;;;;;;11.60;99.50;;;;;;5050381;28;19920;-77
2023/03/21 13:10:53;;;;;;;;;;;11.60;99.60;;;;;;5066593;28;20010;-77
2023/03/21 13:13:22;;;;;;;;;;;11.60;99.70;;;;;;5066610;28;19928;-77
2023/03/21 13:15:53;;;;;;;;;;;11.60;99.70;;;;;;5066370;28;19923;-77
2023/03/21 13:18:21;;;;;;;;;;;11.70;99.70;;;;;;5071092;28;19924;-77
2023/03/21 13:20:50;;;;;;;;;;;11.60;99.60;;;;;;5079641;28;19927;-77
2023/03/21 13:23:17;;;;;;;;;;;11.60;99.60;;;;;;5086956;28;20002;-77
2023/03/21 13:25:47;;;;;;;;;;;11.70;99.60;;;;;;5068310;28;20067;-77
2023/03/21 13:28:17;;;;;;;;;;;11.70;99.60;;;;;;5086999;28;20748;-78
2023/03/21 13:30:42;;;;;;;;;;;11.70;99.60;;;;;;5076436;28;19916;-77
2023/03/21 13:33:12;;;;;;;;;;;11.70;99.60;;;;;;5051509;28;20292;-78
2023/03/21 13:35:40;;;;;;;;;;;11.70;99.60;;;;;;5086447;28;19912;-77
2023/03/21 13:38:17;;;;;;;;;;;11.70;99.60;;;;;;5086706;28;19980;-77
2023/03/21 13:40:44;;;;;;;;;;;11.70;99.60;;;;;;5074718;28;19940;-77
2023/03/21 13:43:29;;;;;;;;;;;11.70;99.60;;;;;;5048468;28;19919;-77
2023/03/21 13:45:54;;;;;;;;;;;11.70;99.60;;;;;;5066693;28;19913;-77
2023/03/21 13:48:30;;;;;;;;;;;11.70;99.70;;;;;;5066557;28;20003;-78
2023/03/21 13:51:00;;;;;;;;;;;11.70;99.70;;;;;;5066470;28;19978;-77
2023/03/21 13:53:30;;;;;;;;;;;11.70;99.70;;;;;;5066689;28;19995;-78
2023/03/21 13:56:00;;;;;;;;;;;11.70;99.70;;;;;;5066008;28;19919;-77
2023/03/21 13:58:31;;;;;;;;;;;11.70;99.60;;;;;;5064550;28;19916;-77
2023/03/21 14:01:09;;;;;;;;;;;11.70;99.60;;;;;;5070220;28;20011;-78
2023/03/21 14:03:35;;;;;;;;;;;11.70;99.70;;;;;;5077226;28;19982;-77
2023/03/21 14:06:00;;;;;;;;;;;11.70;99.60;;;;;;5091207;28;19912;-78
2023/03/21 14:08:27;;;;;;;;;;;11.80;99.70;;;;;;5090943;28;19912;-78
2023/03/21 14:10:56;;;;;;;;;;;11.80;99.60;;;;;;5090539;28;19919;-78
2023/03/21 14:13:24;;;;;;;;;;;11.80;99.60;;;;;;5090897;28;19908;-78
2023/03/21 14:15:51;;;;;;;;;;;11.80;99.50;;;;;;5090860;28;19919;-78
2023/03/21 14:18:21;;;;;;;;;;;11.80;99.50;;;;;;5090847;28;20476;-78
2023/03/21 14:20:54;;;;;;;;;;;11.90;99.50;;;;;;5078324;28;20003;-78
2023/03/21 14:23:20;;;;;;;;;;;11.80;99.50;;;;;;5075770;28;20005;-77
2023/03/21 14:25:47;;;;;;;;;;;11.90;99.40;;;;;;5062278;28;19959;-78
2023/03/21 14:28:14;;;;;;;;;;;11.90;99.40;;;;;;5075564;28;20586;-77
2023/03/21 14:30:41;;;;;;;;;;;11.90;99.40;;;;;;5069821;28;19919;-77
2023/03/21 14:33:06;;;;;;;;;;;11.90;99.70;;;;;;5079471;28;19912;-78